Eldorado, Oklahoma
Current Conditions -  °F | °C
As of 7:15 PM on Thursday 18 Dec 2014 (Local Time) from KAXS Reporting Station
Overcast Overcast  
Wind Chill: 40°   Ceiling: 1600
Heat Index: 44°   Visibility: 10mi
Dew Point: 39°   Wind: 7mph
Humidity: 84%   Direction: 50°NE
Pressure: 30.19"   Gusts: NA
Location:  34.47°N, 99.65°W
Report Text: KAXS 190115Z AUTO 05006KT 10SM OVC016 07/04 A3019 RMK AO2 T00660041
Loading
Personal Weather Stations






























Interactive Weather Map New forecast layout! Learn more

10-Day Weather Forecast

Advertisements
Track Severe Weather on mobile